Time;durP1;ratioP1;P1;durP2;ratioP2;P2;SDS_P1;SDS_P2;PMS_P1;PMS_P2;Temp;Humidity;BMP_temperature;BMP_pressure;BME280_temperature;BME280_humidity;BME280_pressure;Samples;Min_cycle;Max_cycle;Signal;HPM_P1;HPM_P2
2022/06/06 00:01:47;;;;;;;6.00;2.55;;;18.30;82.50;;;;;;4967866;28;20023;-67
2022/06/06 00:04:14;;;;;;;5.40;2.70;;;18.30;82.70;;;;;;4967476;28;20035;-68
2022/06/06 00:06:41;;;;;;;2.70;2.50;;;18.20;82.70;;;;;;4961236;28;20046;-68
2022/06/06 00:09:08;;;;;;;2.95;2.72;;;18.20;82.80;;;;;;4961376;28;20043;-67
2022/06/06 00:11:35;;;;;;;3.92;2.80;;;18.20;82.90;;;;;;4957248;28;20037;-65
2022/06/06 00:14:01;;;;;;;3.92;2.92;;;18.20;83.10;;;;;;4961561;28;20045;-67
2022/06/06 00:16:26;;;;;;;2.92;2.67;;;18.10;83.10;;;;;;4963003;28;20502;-67
2022/06/06 00:18:53;;;;;;;6.85;3.25;;;18.10;83.90;;;;;;4960944;28;20031;-67
2022/06/06 00:21:18;;;;;;;2.97;2.60;;;18.10;83.30;;;;;;4962464;28;20066;-67
2022/06/06 00:23:44;;;;;;;5.82;3.13;;;18.10;83.30;;;;;;4961120;28;20322;-67
2022/06/06 00:26:13;;;;;;;3.67;2.85;;;18.00;83.30;;;;;;4961931;28;20043;-67
2022/06/06 00:28:45;;;;;;;4.35;2.75;;;18.00;83.40;;;;;;4962527;28;20097;-67
2022/06/06 00:36:42;;;;;;;3.40;2.70;;;18.00;83.40;;;;;;4960244;28;20532;-67
2022/06/06 00:39:10;;;;;;;4.47;2.63;;;18.00;83.30;;;;;;4962863;28;20035;-67
2022/06/06 00:41:41;;;;;;;5.43;2.88;;;18.00;83.30;;;;;;4962820;28;20031;-67
2022/06/06 00:44:11;;;;;;;2.65;2.47;;;18.00;83.30;;;;;;4961544;28;20038;-67
2022/06/06 00:47:20;;;;;;;4.40;2.55;;;17.90;83.40;;;;;;4960310;28;20065;-65
2022/06/06 00:49:52;;;;;;;2.85;2.65;;;17.90;83.70;;;;;;4958550;28;20035;-67
2022/06/06 00:52:23;;;;;;;3.50;2.50;;;18.00;83.30;;;;;;4961888;28;20042;-67
2022/06/06 00:54:52;;;;;;;3.45;2.50;;;17.90;83.20;;;;;;4960238;28;20146;-67
2022/06/06 00:57:22;;;;;;;5.35;2.35;;;17.90;83.30;;;;;;4962272;28;20121;-68
2022/06/06 00:59:49;;;;;;;3.15;2.63;;;17.90;83.20;;;;;;4959530;28;20062;-67
2022/06/06 01:02:16;;;;;;;4.05;2.78;;;17.90;83.10;;;;;;4966396;28;20633;-68
2022/06/06 01:04:42;;;;;;;3.28;2.97;;;17.90;83.80;;;;;;4961397;28;20126;-68
2022/06/06 01:07:10;;;;;;;3.20;2.55;;;17.90;83.00;;;;;;4961329;28;20038;-67
2022/06/06 01:09:37;;;;;;;5.40;3.00;;;17.90;82.90;;;;;;4962927;28;20037;-67
2022/06/06 01:12:16;;;;;;;4.70;2.60;;;17.90;83.00;;;;;;4960521;28;20035;-68
2022/06/06 01:14:46;;;;;;;3.22;2.92;;;17.90;83.30;;;;;;4961639;28;20043;-67
2022/06/06 01:17:38;;;;;;;5.32;2.53;;;17.80;84.00;;;;;;4961323;28;20043;-67
2022/06/06 01:20:09;;;;;;;3.13;2.67;;;17.80;83.30;;;;;;4960394;28;20105;-67
2022/06/06 01:22:58;;;;;;;3.28;2.75;;;17.80;83.30;;;;;;4962818;28;20023;-67
2022/06/06 01:25:55;;;;;;;3.30;2.88;;;17.70;83.60;;;;;;4962475;28;20027;-67
2022/06/06 01:28:39;;;;;;;3.25;2.63;;;17.70;83.80;;;;;;4960400;28;20038;-67
2022/06/06 01:31:17;;;;;;;3.05;2.70;;;17.70;83.40;;;;;;4960213;28;20030;-67
2022/06/06 01:33:55;;;;;;;5.13;2.55;;;17.60;84.50;;;;;;4957923;28;20641;-67
2022/06/06 01:36:23;;;;;;;5.18;2.80;;;17.60;83.70;;;;;;4963440;28;20063;-67
2022/06/06 01:38:49;;;;;;;4.65;2.60;;;17.60;83.40;;;;;;4962281;28;20121;-67
2022/06/06 01:41:28;;;;;;;2.85;2.60;;;17.60;83.60;;;;;;4963407;28;20393;-67
2022/06/06 01:44:07;;;;;;;2.83;2.60;;;17.60;83.90;;;;;;4964724;28;21416;-66
2022/06/06 01:46:36;;;;;;;3.22;2.92;;;17.50;83.70;;;;;;4964343;28;20114;-67
2022/06/06 01:49:04;;;;;;;4.65;2.80;;;17.50;83.60;;;;;;4963960;28;20598;-67
2022/06/06 01:51:32;;;;;;;5.65;2.78;;;17.50;83.70;;;;;;4963081;28;20125;-66
2022/06/06 01:53:58;;;;;;;3.55;2.70;;;17.50;83.70;;;;;;4961070;28;20458;-67
2022/06/06 01:56:29;;;;;;;2.88;2.42;;;17.50;83.70;;;;;;4964202;28;20031;-68
2022/06/06 01:58:55;;;;;;;3.03;2.33;;;17.50;83.70;;;;;;4965611;28;20027;-66
2022/06/06 02:01:21;;;;;;;3.03;2.42;;;17.50;83.60;;;;;;4962368;28;20034;-67
2022/06/06 02:03:46;;;;;;;6.78;2.60;;;17.50;83.60;;;;;;4962107;28;20046;-67
2022/06/06 02:06:13;;;;;;;5.18;2.28;;;17.40;83.40;;;;;;4963877;28;20061;-66
2022/06/06 02:08:39;;;;;;;4.10;2.47;;;17.40;83.40;;;;;;4965345;28;20058;-67
2022/06/06 02:11:05;;;;;;;2.55;2.35;;;17.40;84.20;;;;;;4964756;28;20128;-67
2022/06/06 02:13:31;;;;;;;2.50;2.30;;;17.40;83.40;;;;;;4962826;28;20121;-67
2022/06/06 02:15:57;;;;;;;2.55;2.35;;;17.40;83.40;;;;;;4960885;28;22580;-67
2022/06/06 02:18:23;;;;;;;2.40;2.20;;;17.40;83.40;;;;;;4963999;28;20027;-67
2022/06/06 02:20:49;;;;;;;3.30;2.30;;;17.40;83.30;;;;;;4964575;28;20587;-67
2022/06/06 02:23:15;;;;;;;2.10;1.95;;;17.40;83.30;;;;;;4961797;28;20917;-66
2022/06/06 02:25:41;;;;;;;2.88;2.17;;;17.40;83.10;;;;;;4963326;28;20050;-66
2022/06/06 02:28:07;;;;;;;4.57;2.30;;;17.40;83.10;;;;;;4962589;28;20390;-67
2022/06/06 02:30:36;;;;;;;3.67;2.17;;;17.40;83.10;;;;;;4962954;28;20564;-67
2022/06/06 02:33:02;;;;;;;2.40;2.20;;;17.40;83.10;;;;;;4961542;28;20057;-67
2022/06/06 02:35:33;;;;;;;1.92;1.83;;;17.30;83.00;;;;;;4963688;28;20041;-67
2022/06/06 02:37:59;;;;;;;2.78;2.08;;;17.30;83.10;;;;;;4963447;28;20054;-66
2022/06/06 02:40:27;;;;;;;2.25;2.10;;;17.40;83.20;;;;;;4962211;28;20427;-66
2022/06/06 02:42:53;;;;;;;2.00;1.85;;;17.30;83.20;;;;;;4961582;28;20049;-67
2022/06/06 02:45:20;;;;;;;3.63;2.15;;;17.30;83.30;;;;;;4958341;28;20255;-67
2022/06/06 02:47:48;;;;;;;3.25;1.95;;;17.30;83.30;;;;;;4962768;28;20042;-67
2022/06/06 02:50:17;;;;;;;2.40;2.20;;;17.30;83.30;;;;;;4963441;28;20508;-67
2022/06/06 02:52:43;;;;;;;2.00;1.85;;;17.30;83.30;;;;;;4959930;28;20035;-67
2022/06/06 02:55:10;;;;;;;3.03;2.13;;;17.30;83.10;;;;;;4962468;28;20322;-67
2022/06/06 02:57:40;;;;;;;2.45;2.25;;;17.30;83.00;;;;;;4961898;28;20058;-67
2022/06/06 03:00:13;;;;;;;3.35;2.08;;;17.40;83.10;;;;;;4975202;28;20047;-67
2022/06/06 03:02:38;;;;;;;2.75;2.00;;;17.30;82.70;;;;;;4963748;28;20039;-67
2022/06/06 03:05:06;;;;;;;1.98;1.83;;;17.30;82.60;;;;;;4961630;28;20038;-67
2022/06/06 03:07:53;;;;;;;1.88;1.70;;;17.30;82.60;;;;;;4964195;28;20078;-67
2022/06/06 03:10:37;;;;;;;2.85;1.92;;;17.30;82.40;;;;;;4963160;28;20039;-67
2022/06/06 03:13:18;;;;;;;1.90;1.80;;;17.30;82.60;;;;;;4964570;28;20805;-67
2022/06/06 03:22:22;;;;;;;2.45;1.90;;;17.20;82.50;;;;;;4944298;28;20069;-67
2022/06/06 03:25:02;;;;;;;2.40;2.20;;;17.20;82.50;;;;;;4965133;28;20497;-67
2022/06/06 03:28:03;;;;;;;3.30;2.20;;;17.20;82.60;;;;;;4964702;28;20514;-67
2022/06/06 03:30:47;;;;;;;2.58;2.38;;;17.20;82.60;;;;;;4946440;28;20062;-67
2022/06/06 03:33:23;;;;;;;2.40;2.20;;;17.10;82.40;;;;;;4961786;28;20026;-66
2022/06/06 03:35:55;;;;;;;2.20;2.10;;;17.10;82.20;;;;;;4961439;28;20054;-64
2022/06/06 03:38:46;;;;;;;2.28;2.08;;;17.10;82.40;;;;;;4961854;28;20047;-66
2022/06/06 03:41:23;;;;;;;2.13;2.03;;;17.00;82.70;;;;;;4962250;28;20562;-67
2022/06/06 03:43:55;;;;;;;3.38;2.40;;;17.00;82.60;;;;;;4961945;28;20035;-67
2022/06/06 03:46:53;;;;;;;2.47;2.28;;;16.90;82.60;;;;;;4958471;28;20042;-67
2022/06/06 03:49:32;;;;;;;2.58;2.05;;;16.90;82.80;;;;;;4962596;28;20034;-65
2022/06/06 03:52:01;;;;;;;2.63;2.10;;;16.90;82.80;;;;;;4960817;28;20079;-67
2022/06/06 03:54:35;;;;;;;3.45;2.10;;;16.80;82.60;;;;;;4961251;28;20090;-67
2022/06/06 03:57:07;;;;;;;2.47;2.20;;;16.80;82.90;;;;;;4960106;28;20400;-67
2022/06/06 03:59:36;;;;;;;3.05;2.10;;;16.80;82.90;;;;;;4964022;28;20035;-67
2022/06/06 04:02:04;;;;;;;3.55;2.60;;;16.80;82.90;;;;;;4956988;28;20035;-67
2022/06/06 04:04:30;;;;;;;2.72;2.20;;;16.80;82.90;;;;;;4959176;28;20081;-67
2022/06/06 04:06:57;;;;;;;2.42;2.20;;;16.80;82.90;;;;;;4957959;28;20071;-67
2022/06/06 04:09:24;;;;;;;2.58;2.38;;;16.80;82.90;;;;;;4961243;28;20574;-67
2022/06/06 04:12:02;;;;;;;3.70;2.17;;;16.80;83.00;;;;;;4959758;28;20125;-67
2022/06/06 04:14:44;;;;;;;2.28;2.15;;;16.80;83.10;;;;;;4961118;28;20045;-67
2022/06/06 04:17:54;;;;;;;3.88;2.22;;;16.80;83.00;;;;;;4959203;28;20035;-67
2022/06/06 04:20:50;;;;;;;2.22;2.03;;;16.80;83.00;;;;;;4960363;28;20035;-67
2022/06/06 04:23:40;;;;;;;2.70;2.03;;;16.80;82.70;;;;;;4958923;28;20573;-66
2022/06/06 04:26:18;;;;;;;2.85;2.42;;;16.80;82.60;;;;;;4961442;28;20068;-67
2022/06/06 04:28:55;;;;;;;2.40;2.20;;;16.80;82.60;;;;;;4961110;28;20069;-67
2022/06/06 04:31:49;;;;;;;2.55;2.30;;;16.80;83.00;;;;;;4957419;28;20031;-67
2022/06/06 04:34:14;;;;;;;3.03;2.40;;;16.80;83.10;;;;;;4959116;28;20118;-67
2022/06/06 04:36:50;;;;;;;2.65;2.33;;;16.90;82.90;;;;;;4958265;28;20034;-67
2022/06/06 04:39:26;;;;;;;2.85;2.60;;;16.80;83.80;;;;;;4961793;28;20372;-67
2022/06/06 04:42:15;;;;;;;2.63;2.40;;;16.80;83.20;;;;;;4960554;28;20031;-67
2022/06/06 04:45:12;;;;;;;2.47;2.28;;;16.80;83.20;;;;;;4960706;28;20038;-67
2022/06/06 04:47:40;;;;;;;3.80;2.25;;;16.80;83.40;;;;;;4960284;28;20034;-67
2022/06/06 04:50:14;;;;;;;3.17;2.35;;;16.80;83.30;;;;;;4962004;28;20043;-67
2022/06/06 04:52:44;;;;;;;4.60;2.50;;;16.90;83.40;;;;;;4955903;28;20065;-67
2022/06/06 04:55:12;;;;;;;2.63;2.40;;;16.90;84.50;;;;;;4962128;28;20126;-66
2022/06/06 04:57:43;;;;;;;2.63;2.33;;;16.80;83.80;;;;;;4974684;28;20034;-67
2022/06/06 05:00:09;;;;;;;2.50;2.30;;;16.90;84.00;;;;;;4960882;28;20035;-66
2022/06/06 05:02:36;;;;;;;2.33;2.13;;;16.90;84.10;;;;;;4956610;28;20505;-67
2022/06/06 05:05:04;;;;;;;2.45;2.28;;;16.90;84.40;;;;;;4956617;28;20054;-67
2022/06/06 05:08:14;;;;;;;2.63;2.40;;;17.00;84.50;;;;;;4959088;28;20505;-67
2022/06/06 05:10:55;;;;;;;3.00;2.20;;;17.00;85.00;;;;;;4959075;28;20034;-67
2022/06/06 05:13:57;;;;;;;5.07;2.30;;;17.10;84.60;;;;;;4959138;28;20035;-67
2022/06/06 05:16:29;;;;;;;2.53;2.22;;;17.20;85.10;;;;;;4960106;28;20031;-67
2022/06/06 05:19:13;;;;;;;2.20;2.00;;;17.20;84.60;;;;;;4956425;28;20035;-67
2022/06/06 05:22:07;;;;;;;2.45;2.25;;;17.30;85.20;;;;;;4960381;28;20050;-66
2022/06/06 05:25:06;;;;;;;2.45;2.25;;;17.30;85.30;;;;;;4961106;28;20538;-66
2022/06/06 05:27:50;;;;;;;2.10;2.00;;;17.40;85.70;;;;;;4963617;28;20042;-67
2022/06/06 05:30:31;;;;;;;3.40;2.28;;;17.40;85.70;;;;;;4958106;28;20037;-66
2022/06/06 05:33:22;;;;;;;2.30;2.10;;;17.50;85.50;;;;;;4959498;28;20031;-67
2022/06/06 05:36:11;;;;;;;3.22;2.28;;;17.50;85.90;;;;;;4960003;28;20129;-67
2022/06/06 05:39:11;;;;;;;3.38;2.70;;;17.60;85.70;;;;;;4957283;28;21195;-67
2022/06/06 05:42:04;;;;;;;2.90;2.20;;;17.70;85.50;;;;;;4956978;28;20506;-66
2022/06/06 05:45:00;;;;;;;3.20;2.40;;;17.80;85.60;;;;;;4960556;28;20557;-67
2022/06/06 05:47:46;;;;;;;3.97;2.20;;;17.90;85.50;;;;;;4962657;28;20624;-66
2022/06/06 05:50:57;;;;;;;3.67;2.40;;;17.90;85.50;;;;;;4959292;28;20051;-66
2022/06/06 05:53:51;;;;;;;3.15;2.40;;;18.00;85.50;;;;;;4938427;28;20035;-65
2022/06/06 05:56:19;;;;;;;3.35;2.40;;;18.10;85.20;;;;;;4960372;28;20114;-66
2022/06/06 05:59:11;;;;;;;4.15;2.40;;;18.20;85.00;;;;;;4961788;28;20045;-67
2022/06/06 06:01:52;;;;;;;3.75;2.55;;;18.30;85.20;;;;;;4960410;28;20035;-66
2022/06/06 06:04:33;;;;;;;2.83;2.25;;;18.40;84.90;;;;;;4961038;28;20031;-67
2022/06/06 06:07:42;;;;;;;3.35;2.47;;;18.50;84.80;;;;;;4958363;28;20039;-67
2022/06/06 06:10:16;;;;;;;2.70;2.50;;;18.50;84.50;;;;;;4948046;28;20058;-67
2022/06/06 06:13:00;;;;;;;2.85;2.65;;;18.60;84.40;;;;;;4953741;28;20518;-67
2022/06/06 06:15:32;;;;;;;2.80;2.35;;;18.70;84.20;;;;;;4958921;28;20437;-67
2022/06/06 06:18:02;;;;;;;3.05;2.85;;;18.80;84.00;;;;;;4961584;28;20050;-66
2022/06/06 06:20:35;;;;;;;2.78;2.28;;;18.80;83.70;;;;;;4957087;28;20514;-65
2022/06/06 06:23:07;;;;;;;2.42;2.22;;;18.90;83.60;;;;;;4959082;28;20097;-65
2022/06/06 06:25:39;;;;;;;3.40;2.80;;;19.00;83.50;;;;;;4958354;28;20089;-65
2022/06/06 06:28:11;;;;;;;3.38;2.45;;;19.10;83.30;;;;;;4958301;28;20030;-67
2022/06/06 06:30:55;;;;;;;2.60;2.40;;;19.20;83.10;;;;;;4959937;28;20031;-67
2022/06/06 06:33:28;;;;;;;2.67;2.47;;;19.20;82.70;;;;;;4963341;28;20039;-64
2022/06/06 06:36:07;;;;;;;3.70;2.88;;;19.20;82.40;;;;;;4959359;28;20521;-66
2022/06/06 06:38:51;;;;;;;3.42;2.85;;;19.30;82.00;;;;;;4964233;28;20166;-67
2022/06/06 06:41:50;;;;;;;4.07;2.88;;;19.30;82.50;;;;;;4961311;28;20722;-66
2022/06/06 06:44:29;;;;;;;3.80;3.08;;;19.40;82.40;;;;;;4954755;28;20046;-66
2022/06/06 06:46:57;;;;;;;4.38;3.15;;;19.40;82.10;;;;;;4957420;28;20050;-67
2022/06/06 06:49:41;;;;;;;3.17;2.88;;;19.50;82.30;;;;;;4953871;28;20586;-67
2022/06/06 06:52:31;;;;;;;5.07;3.00;;;19.50;82.40;;;;;;5063998;23;20142;-65
2022/06/06 06:55:13;;;;;;;4.18;3.33;;;19.60;81.90;;;;;;4942533;28;20057;-65
2022/06/06 06:57:59;;;;;;;4.05;3.33;;;19.70;81.90;;;;;;4938731;28;20027;-65
2022/06/06 07:00:25;;;;;;;2.72;2.53;;;19.70;81.30;;;;;;4944464;28;20501;-67
2022/06/06 07:09:11;;;;;;;4.30;2.92;;;19.90;80.30;;;;;;4940039;28;20521;-66
2022/06/06 07:11:58;;;;;;;3.25;2.90;;;20.00;80.30;;;;;;4939714;28;20043;-66
2022/06/06 07:14:56;;;;;;;3.50;3.08;;;20.00;80.00;;;;;;4941490;28;20032;-65
2022/06/06 07:17:24;;;;;;;3.25;2.95;;;20.10;79.80;;;;;;4945349;28;20040;-66
2022/06/06 07:20:01;;;;;;;3.10;2.90;;;20.20;81.20;;;;;;4938718;28;20031;-67
2022/06/06 07:22:59;;;;;;;3.00;2.70;;;20.20;79.60;;;;;;4940619;28;20123;-67
2022/06/06 07:25:20;;;;;;;3.90;3.03;;;20.30;79.30;;;;;;4943367;28;20030;-66
2022/06/06 07:27:46;;;;;;;3.42;3.13;;;20.40;78.00;;;;;;4942121;28;20035;-68
2022/06/06 07:30:12;;;;;;;3.47;2.90;;;20.40;78.40;;;;;;4942118;28;20047;-66
2022/06/06 07:33:08;;;;;;;5.00;3.30;;;20.40;78.40;;;;;;4941395;28;20131;-68
2022/06/06 07:36:04;;;;;;;3.30;3.00;;;20.40;76.10;;;;;;4937735;28;57278;-65
2022/06/06 07:38:52;;;;;;;3.92;2.80;;;20.50;77.30;;;;;;4958369;28;20486;-66
2022/06/06 07:41:44;;;;;;;2.55;2.35;;;20.50;77.30;;;;;;4946114;28;20031;-66
2022/06/06 07:44:34;;;;;;;2.97;2.72;;;20.50;76.50;;;;;;4943352;28;20043;-66
2022/06/06 07:47:18;;;;;;;2.97;2.50;;;20.50;76.00;;;;;;4943615;28;20027;-64
2022/06/06 07:50:14;;;;;;;5.13;2.72;;;20.50;76.40;;;;;;4938406;28;20027;-66
2022/06/06 07:53:12;;;;;;;2.88;2.22;;;20.60;76.20;;;;;;4946561;28;20047;-66
2022/06/06 07:55:50;;;;;;;2.85;2.40;;;20.60;75.40;;;;;;4948038;28;20071;-66
2022/06/06 07:58:27;;;;;;;2.83;2.53;;;20.60;75.00;;;;;;4947128;28;20157;-66
2022/06/06 08:01:02;;;;;;;2.88;2.25;;;20.70;75.10;;;;;;4949038;28;20046;-66
2022/06/06 08:04:06;;;;;;;4.15;2.65;;;20.70;74.90;;;;;;4941580;28;20067;-66
2022/06/06 08:06:38;;;;;;;3.38;3.08;;;20.80;74.40;;;;;;4947261;28;20064;-66
2022/06/06 08:09:32;;;;;;;3.40;2.80;;;20.90;75.10;;;;;;4946132;28;20045;-66
2022/06/06 08:12:03;;;;;;;2.60;2.40;;;20.90;74.00;;;;;;4944608;28;20167;-64
2022/06/06 08:14:48;;;;;;;2.45;2.25;;;21.00;74.60;;;;;;4949201;28;20050;-66
2022/06/06 08:17:30;;;;;;;3.07;2.70;;;21.10;73.90;;;;;;4949008;28;20078;-66
2022/06/06 08:19:55;;;;;;;3.33;2.20;;;21.20;74.00;;;;;;4936474;28;20287;-63
2022/06/06 08:22:24;;;;;;;2.65;2.28;;;21.30;74.10;;;;;;4960194;28;20089;-66
2022/06/06 08:24:54;;;;;;;2.30;2.13;;;21.40;72.50;;;;;;4946860;28;21727;-66
2022/06/06 08:27:20;;;;;;;2.25;2.10;;;21.40;72.00;;;;;;4952151;28;20053;-66
2022/06/06 08:29:47;;;;;;;2.20;2.00;;;21.50;72.70;;;;;;4953601;28;20085;-67
2022/06/06 08:32:14;;;;;;;3.22;2.30;;;21.60;73.10;;;;;;4947986;28;20813;-67
2022/06/06 08:34:40;;;;;;;1.95;1.75;;;21.70;73.00;;;;;;4946906;28;20503;-66
2022/06/06 08:37:09;;;;;;;2.78;2.58;;;21.80;70.40;;;;;;4949713;28;20061;-67
2022/06/06 08:39:37;;;;;;;2.25;2.05;;;21.80;70.50;;;;;;4950417;28;20043;-67
2022/06/06 08:42:15;;;;;;;2.15;1.90;;;21.90;69.50;;;;;;4970608;28;20057;-67
2022/06/06 08:45:05;;;;;;;6.43;2.50;;;22.00;69.90;;;;;;4954570;28;20031;-68
2022/06/06 08:48:17;;;;;;;2.45;1.95;;;22.10;68.10;;;;;;4956051;28;20034;-69
2022/06/06 08:50:55;;;;;;;2.75;2.17;;;22.20;68.60;;;;;;4943852;28;20089;-67
2022/06/06 08:54:09;;;;;;;3.63;2.00;;;22.20;68.80;;;;;;4953196;28;20042;-67
2022/06/06 08:56:53;;;;;;;3.00;1.60;;;22.30;67.40;;;;;;4952640;28;20034;-67
2022/06/06 08:59:31;;;;;;;2.97;1.85;;;22.30;65.90;;;;;;4957293;28;20027;-67
2022/06/06 09:02:18;;;;;;;1.92;1.80;;;22.30;67.30;;;;;;4949255;28;20039;-66
2022/06/06 09:05:16;;;;;;;2.33;1.88;;;22.30;66.70;;;;;;4967433;28;20038;-67
2022/06/06 09:08:29;;;;;;;1.80;1.70;;;22.40;66.60;;;;;;4916623;28;20026;-67
2022/06/06 09:11:24;;;;;;;1.90;1.80;;;22.40;66.20;;;;;;4854430;29;21123;-67
2022/06/06 09:14:07;;;;;;;1.80;1.70;;;22.40;66.20;;;;;;4857776;29;20188;-68
2022/06/06 09:16:44;;;;;;;1.80;1.60;;;22.50;67.50;;;;;;4940026;28;20027;-67
2022/06/06 09:19:42;;;;;;;1.92;1.73;;;22.50;67.60;;;;;;4966190;28;20078;-67
2022/06/06 09:22:11;;;;;;;2.05;1.67;;;22.60;67.40;;;;;;4917002;28;20494;-67
2022/06/06 09:25:13;;;;;;;1.77;1.42;;;22.80;67.30;;;;;;4955707;28;20102;-67
2022/06/06 09:28:09;;;;;;;1.55;1.45;;;22.90;65.70;;;;;;4955403;28;20034;-67
2022/06/06 09:30:43;;;;;;;1.70;1.60;;;23.00;64.60;;;;;;4955556;28;20042;-67
2022/06/06 09:33:36;;;;;;;1.77;1.65;;;23.10;64.60;;;;;;4968683;28;20514;-64
2022/06/06 09:36:29;;;;;;;2.55;1.48;;;23.20;64.10;;;;;;4952999;28;20493;-67
2022/06/06 09:39:24;;;;;;;1.38;1.27;;;23.30;63.40;;;;;;4951893;28;20039;-67
2022/06/06 09:42:40;;;;;;;2.30;1.40;;;23.40;62.90;;;;;;4952745;28;20027;-67
2022/06/06 09:45:17;;;;;;;;;;;23.60;62.10;;;;;;4919499;28;20030;-68
2022/06/06 09:48:13;;;;;;;1.98;1.40;;;23.70;62.70;;;;;;4955524;28;20492;-67
2022/06/06 09:50:54;;;;;;;3.38;1.40;;;23.80;60.00;;;;;;4953994;28;20456;-67
2022/06/06 09:53:43;;;;;;;2.40;1.70;;;23.80;59.60;;;;;;4954994;28;20515;-67
2022/06/06 10:00:02;;;;;;;1.30;1.20;;;23.80;60.40;;;;;;4953616;28;20038;-67
2022/06/06 10:03:12;;;;;;;2.25;1.80;;;23.80;60.30;;;;;;4952856;28;20031;-68
2022/06/06 10:05:41;;;;;;;1.60;1.50;;;23.80;60.60;;;;;;4889800;29;20719;-67
2022/06/06 10:08:52;;;;;;;2.30;1.73;;;23.80;60.40;;;;;;4891579;29;20132;-67
2022/06/06 10:11:27;;;;;;;1.75;1.50;;;23.80;59.90;;;;;;4912280;28;20042;-67
2022/06/06 10:13:56;;;;;;;;;;;23.80;61.30;;;;;;4959499;28;20039;-65
2022/06/06 10:16:33;;;;;;;1.63;1.50;;;23.80;59.50;;;;;;4953401;28;19918;-67
2022/06/06 10:19:21;;;;;;;1.52;1.42;;;23.80;60.10;;;;;;4955006;28;20039;-66
2022/06/06 10:22:11;;;;;;;1.27;1.17;;;23.80;58.80;;;;;;4958834;28;20042;-67
2022/06/06 10:24:46;;;;;;;1.67;1.25;;;23.80;58.10;;;;;;4956549;28;20034;-67
2022/06/06 10:27:18;;;;;;;1.02;1.02;;;23.80;58.60;;;;;;4953692;28;21338;-67
2022/06/06 10:32:52;;;;;;;1.23;1.13;;;23.90;59.00;;;;;;4955160;28;20045;-67
2022/06/06 10:35:30;;;;;;;1.02;1.02;;;24.00;59.00;;;;;;4957039;28;20122;-67
2022/06/06 10:38:19;;;;;;;1.52;1.10;;;24.10;58.00;;;;;;4951899;28;20496;-67
2022/06/06 10:41:06;;;;;;;1.10;1.00;;;24.20;57.60;;;;;;4953618;28;20122;-67
2022/06/06 10:43:58;;;;;;;1.85;1.20;;;24.20;57.80;;;;;;4953613;28;20050;-67
2022/06/06 10:46:29;;;;;;;1.25;1.15;;;24.30;56.90;;;;;;4957195;28;20036;-67
2022/06/06 10:48:58;;;;;;;2.05;1.08;;;24.40;57.70;;;;;;4957843;28;20035;-67
2022/06/06 10:51:46;;;;;;;1.40;1.08;;;24.50;58.50;;;;;;4955529;28;20031;-67
2022/06/06 10:54:30;;;;;;;2.35;1.05;;;24.60;56.60;;;;;;4952760;28;20050;-66
2022/06/06 10:57:24;;;;;;;2.92;1.27;;;24.70;56.70;;;;;;4943974;28;20406;-67
2022/06/06 11:00:08;;;;;;;1.80;1.13;;;24.70;55.90;;;;;;4945164;28;20043;-67
2022/06/06 11:02:45;;;;;;;2.75;1.30;;;24.70;56.60;;;;;;4951597;28;20402;-67
2022/06/06 11:05:23;;;;;;;2.00;1.10;;;24.70;55.60;;;;;;4954257;28;20030;-68
2022/06/06 11:08:09;;;;;;;1.50;1.08;;;24.70;54.90;;;;;;4971299;28;20036;-67
2022/06/06 11:10:53;;;;;;;1.50;1.40;;;24.70;55.00;;;;;;4950764;28;20226;-64
2022/06/06 11:14:00;;;;;;;1.30;1.20;;;24.70;56.70;;;;;;4954905;28;20078;-67
2022/06/06 11:16:48;;;;;;;1.13;1.00;;;24.70;56.20;;;;;;4902034;29;20050;-67
2022/06/06 11:19:19;;;;;;;2.05;1.20;;;24.70;55.60;;;;;;4917078;29;20084;-67
2022/06/06 11:21:45;;;;;;;1.25;1.15;;;24.80;55.90;;;;;;4950709;28;20023;-68
2022/06/06 11:24:38;;;;;;;2.97;1.20;;;24.80;55.50;;;;;;4954296;28;20499;-67
2022/06/06 11:27:19;;;;;;;1.33;1.23;;;24.80;54.20;;;;;;4954529;28;20066;-67
2022/06/06 11:30:08;;;;;;;2.58;1.13;;;24.80;55.20;;;;;;4956714;28;20055;-67
2022/06/06 11:32:52;;;;;;;1.13;1.08;;;24.80;55.00;;;;;;4943833;28;20035;-67
2022/06/06 11:35:30;;;;;;;1.13;1.00;;;24.80;55.60;;;;;;4956633;28;20047;-67
2022/06/06 11:38:23;;;;;;;1.58;1.25;;;24.80;54.80;;;;;;4954481;28;20031;-67
2022/06/06 11:41:15;;;;;;;1.23;1.13;;;24.80;55.20;;;;;;4955707;28;20027;-66
2022/06/06 11:43:40;;;;;;;1.77;1.00;;;24.80;53.70;;;;;;4970310;28;20094;-67
2022/06/06 11:46:25;;;;;;;1.13;1.02;;;24.80;54.90;;;;;;4955359;28;20042;-67
2022/06/06 11:49:13;;;;;;;3.05;1.02;;;24.80;54.70;;;;;;4955616;28;20097;-67
2022/06/06 11:52:16;;;;;;;1.48;1.00;;;24.80;55.50;;;;;;4957481;28;20023;-67
2022/06/06 11:55:03;;;;;;;1.10;1.00;;;24.90;55.40;;;;;;4955945;28;20057;-67
2022/06/06 11:57:56;;;;;;;1.38;1.10;;;25.00;55.00;;;;;;4951087;28;20066;-67
2022/06/06 12:00:37;;;;;;;1.52;1.20;;;25.00;54.90;;;;;;4952352;28;20031;-67
2022/06/06 12:03:30;;;;;;;1.10;1.00;;;25.10;55.50;;;;;;4953002;28;20043;-67
2022/06/06 12:06:25;;;;;;;1.25;1.15;;;25.30;55.10;;;;;;4953837;28;20106;-67
2022/06/06 12:09:32;;;;;;;1.40;1.30;;;25.40;53.80;;;;;;4947820;28;20483;-67
2022/06/06 12:12:31;;;;;;;2.95;1.40;;;25.40;53.00;;;;;;4940142;28;20039;-67
2022/06/06 12:15:11;;;;;;;1.42;1.30;;;25.40;54.70;;;;;;4952862;28;20102;-68
2022/06/06 12:17:58;;;;;;;1.98;1.20;;;25.50;53.70;;;;;;4953178;28;20138;-67
2022/06/06 12:20:37;;;;;;;1.30;1.20;;;25.50;53.20;;;;;;4955512;28;20043;-68
2022/06/06 12:23:12;;;;;;;2.95;1.30;;;25.50;53.10;;;;;;4954743;28;20035;-67
2022/06/06 12:26:06;;;;;;;2.40;1.30;;;25.50;52.00;;;;;;4952555;28;20166;-67
2022/06/06 12:28:50;;;;;;;1.30;1.20;;;25.50;52.70;;;;;;4969234;28;20037;-68
2022/06/06 12:31:44;;;;;;;1.20;1.10;;;25.50;53.20;;;;;;4954587;28;20240;-66
2022/06/06 12:34:13;;;;;;;1.35;1.20;;;25.60;52.50;;;;;;4955473;28;20039;-67
2022/06/06 12:36:50;;;;;;;1.30;1.20;;;25.60;52.40;;;;;;4953564;28;20387;-67
2022/06/06 12:39:28;;;;;;;1.83;1.20;;;25.60;52.70;;;;;;4958807;28;20036;-67
2022/06/06 12:42:20;;;;;;;3.50;1.38;;;25.60;52.00;;;;;;4958926;28;20036;-68
2022/06/06 12:45:00;;;;;;;1.23;1.10;;;25.60;51.80;;;;;;4944875;28;20058;-68
2022/06/06 12:47:38;;;;;;;1.50;1.20;;;25.60;52.40;;;;;;4957982;28;20031;-67
2022/06/06 12:50:19;;;;;;;2.08;1.40;;;25.50;53.40;;;;;;4958051;28;20039;-67
2022/06/06 12:53:28;;;;;;;2.65;1.40;;;25.50;51.80;;;;;;4958622;28;20101;-67
2022/06/06 12:56:23;;;;;;;1.20;1.08;;;25.40;52.60;;;;;;4931707;28;20031;-67
2022/06/06 12:58:57;;;;;;;1.40;1.10;;;25.50;53.30;;;;;;4953686;28;20976;-67
2022/06/06 13:01:38;;;;;;;;;;;25.50;53.80;;;;;;4972354;28;20038;-68
2022/06/06 13:04:26;;;;;;;2.25;1.20;;;25.60;53.70;;;;;;4955950;28;20210;-68
2022/06/06 13:07:19;;;;;;;1.33;1.23;;;25.60;53.70;;;;;;4955784;28;20058;-67
2022/06/06 13:09:57;;;;;;;1.20;1.10;;;25.60;53.80;;;;;;4954216;28;20055;-67
2022/06/06 13:12:39;;;;;;;1.00;0.93;;;25.70;52.30;;;;;;4941485;28;20058;-67
2022/06/06 13:15:42;;;;;;;2.78;1.30;;;25.80;52.50;;;;;;4964101;28;20042;-67
2022/06/06 13:18:29;;;;;;;1.20;1.10;;;25.90;52.70;;;;;;4942027;28;20042;-67
2022/06/06 13:20:55;;;;;;;1.20;1.10;;;26.00;51.60;;;;;;4953494;28;20035;-67
2022/06/06 13:23:23;;;;;;;1.40;1.30;;;26.00;52.50;;;;;;4954687;28;20117;-67
2022/06/06 13:26:12;;;;;;;1.77;1.60;;;26.00;52.30;;;;;;4953388;28;20054;-67
2022/06/06 13:28:47;;;;;;;1.85;1.40;;;26.00;51.70;;;;;;4911014;28;20043;-67
2022/06/06 13:31:34;;;;;;;1.88;1.23;;;26.10;51.80;;;;;;4952268;28;20090;-66
2022/06/06 13:34:15;;;;;;;1.30;1.20;;;26.10;51.50;;;;;;4966831;28;20066;-67
2022/06/06 13:37:03;;;;;;;1.35;1.20;;;26.10;51.00;;;;;;4952479;28;20023;-66
2022/06/06 13:39:41;;;;;;;1.30;1.20;;;26.10;51.00;;;;;;4959293;28;20498;-67
2022/06/06 13:42:18;;;;;;;1.25;1.15;;;26.10;51.90;;;;;;4956707;28;20195;-67
2022/06/06 13:44:45;;;;;;;2.40;1.40;;;26.10;51.80;;;;;;4958584;28;20483;-67
2022/06/06 13:47:49;;;;;;;1.30;1.20;;;26.10;51.90;;;;;;4954064;28;20517;-67
2022/06/06 13:50:23;;;;;;;1.17;1.10;;;26.00;51.80;;;;;;4927586;28;20093;-67
2022/06/06 13:53:23;;;;;;;1.30;1.20;;;26.00;52.10;;;;;;4958281;28;20720;-67
2022/06/06 13:56:17;;;;;;;3.03;1.42;;;26.00;52.50;;;;;;4956934;28;20605;-67
2022/06/06 13:59:00;;;;;;;1.27;1.17;;;26.00;52.20;;;;;;4957960;28;20085;-67
2022/06/06 14:01:45;;;;;;;1.30;1.20;;;26.10;52.30;;;;;;4960793;28;20043;-67
2022/06/06 14:04:14;;;;;;;1.55;1.15;;;26.10;52.10;;;;;;4971118;28;20031;-67
2022/06/06 14:06:45;;;;;;;1.95;1.38;;;26.20;51.90;;;;;;4955776;28;20028;-67
2022/06/06 14:09:16;;;;;;;3.58;1.42;;;26.20;51.70;;;;;;4971437;28;20126;-68
2022/06/06 14:12:04;;;;;;;1.38;1.27;;;26.30;50.90;;;;;;4945379;28;20483;-67
2022/06/06 14:14:33;;;;;;;2.40;1.10;;;26.30;51.50;;;;;;4953523;28;20071;-68
2022/06/06 14:17:04;;;;;;;2.20;1.20;;;26.20;51.80;;;;;;4951046;28;20529;-67
2022/06/06 14:19:48;;;;;;;1.38;1.27;;;26.30;51.60;;;;;;4953778;28;20058;-67